Converse, Louisiana
Current Conditions -  °F | °C
As of 12:35 AM on Saturday 20 Dec 2014 (Local Time) from KIER Reporting Station
Overcast Overcast  
Wind Chill: 45°   Ceiling: 900
Heat Index: 47°   Visibility: 10mi
Dew Point: 46°   Wind: 6mph
Humidity: 97%   Direction: 20°NNE
Pressure: 30.18"   Gusts: NA
Location:  31.78°N, 93.69°W
Report Text: KIER 200635Z AUTO 02005KT 10SM OVC009 09/08 A3018 RMK AO2 T00850080
Loading
Personal Weather Stations






























Interactive Weather Map New forecast layout! Learn more

10-Day Weather Forecast

Advertisements
Track Severe Weather on mobile